createdAt,value
2019-02-11T00:08:08.314Z,1.45
2019-02-11T00:18:10.298Z,1.05
2019-02-11T00:28:12.447Z,1.32
2019-02-11T00:38:14.664Z,8.33
2019-02-11T00:48:16.618Z,3.52
2019-02-11T00:58:18.629Z,1.30
2019-02-11T01:08:20.934Z,1.20
2019-02-11T01:18:22.919Z,1.10
2019-02-11T01:28:24.866Z,1.77
2019-02-11T01:38:27.100Z,1.62
2019-02-11T01:48:29.071Z,5.25
2019-02-11T01:58:31.634Z,3.92
2019-02-11T02:08:34.570Z,4.00
2019-02-11T02:18:36.954Z,5.10
2019-02-11T02:28:38.895Z,7.53
2019-02-11T02:38:41.213Z,5.92
2019-02-11T02:48:45.315Z,4.37
2019-02-11T02:58:47.462Z,5.92
2019-02-11T03:08:49.553Z,11.40
2019-02-11T03:18:51.655Z,11.35
2019-02-11T03:28:53.927Z,7.20
2019-02-11T03:38:55.887Z,7.67
2019-02-11T03:48:57.981Z,9.58
2019-02-11T03:59:00.214Z,16.82
2019-02-11T04:09:03.994Z,20.27
2019-02-11T04:19:06.021Z,22.32
2019-02-11T04:29:08.496Z,19.32
2019-02-11T04:39:10.955Z,26.10
2019-02-11T04:49:12.934Z,17.48
2019-02-11T04:59:15.118Z,14.50
2019-02-11T05:09:17.602Z,12.73
2019-02-11T05:19:19.591Z,22.07
2019-02-11T05:29:21.555Z,17.42
2019-02-11T05:39:24.594Z,25.80
2019-02-11T05:49:26.639Z,25.20
2019-02-11T05:59:28.683Z,36.10
2019-02-11T06:09:30.787Z,18.70
2019-02-11T06:19:52.211Z,14.53
2019-02-11T06:29:54.407Z,18.77
2019-02-11T06:39:56.379Z,22.55
2019-02-11T06:49:59.671Z,21.25
2019-02-11T07:00:01.726Z,27.40
2019-02-11T07:10:06.242Z,34.67
2019-02-11T07:20:08.932Z,17.57
2019-02-11T07:30:12.907Z,17.40
2019-02-11T07:40:15.338Z,28.20
2019-02-11T07:50:17.446Z,18.17
2019-02-11T08:00:19.443Z,22.05
2019-02-11T08:10:22.332Z,27.25
2019-02-11T08:20:24.340Z,23.63
2019-02-11T08:30:26.325Z,22.07
2019-02-11T08:40:28.286Z,30.15
2019-02-11T08:50:30.287Z,23.80
2019-02-11T09:00:32.895Z,26.25
2019-02-11T09:10:35.043Z,17.93
2019-02-11T09:20:37.325Z,16.37
2019-02-11T09:30:39.905Z,13.83
2019-02-11T09:40:42.460Z,24.03
2019-02-11T09:50:47.231Z,18.95
2019-02-11T10:00:49.308Z,17.62
2019-02-11T10:10:51.487Z,20.90
2019-02-11T10:20:53.430Z,20.82
2019-02-11T10:30:55.453Z,18.62
2019-02-11T10:40:57.402Z,16.07
2019-02-11T10:51:01.314Z,22.37
2019-02-11T11:01:04.087Z,21.73
2019-02-11T11:11:07.440Z,19.83
2019-02-11T11:21:11.803Z,22.37
2019-02-11T11:31:13.748Z,15.93
2019-02-11T11:41:16.846Z,31.17
2019-02-11T11:51:18.830Z,22.05
2019-02-11T12:01:20.954Z,15.40
2019-02-11T12:11:22.937Z,14.87
2019-02-11T12:21:25.971Z,23.12
2019-02-11T12:31:28.978Z,18.10
2019-02-11T12:41:30.892Z,19.00
2019-02-11T12:51:32.889Z,8.95
2019-02-11T13:01:34.918Z,10.08
2019-02-11T13:11:36.904Z,17.05
2019-02-11T13:21:38.854Z,7.12
2019-02-11T13:31:40.818Z,9.58
2019-02-11T13:41:43.042Z,12.47
2019-02-11T13:51:45.350Z,9.58
2019-02-11T14:01:47.328Z,7.60
2019-02-11T14:11:49.555Z,3.77
2019-02-11T14:21:51.541Z,6.45
2019-02-11T14:31:53.461Z,8.98
2019-02-11T14:41:56.195Z,13.05
2019-02-11T14:51:58.163Z,11.77
2019-02-11T15:02:00.477Z,17.90
2019-02-11T15:12:04.519Z,19.87
2019-02-11T15:22:06.525Z,28.25
2019-02-11T15:32:08.617Z,24.55
2019-02-11T15:42:10.567Z,18.45
2019-02-11T15:52:12.911Z,20.17
2019-02-11T16:02:16.382Z,25.17
2019-02-11T16:22:19.931Z,24.12
2019-02-11T16:32:23.674Z,23.05
2019-02-11T16:42:26.824Z,18.55
2019-02-11T17:02:32.038Z,19.25
2019-02-11T17:12:34.313Z,15.60
2019-02-11T17:22:36.238Z,17.75
2019-02-11T17:32:38.319Z,15.75
2019-02-11T17:42:40.577Z,21.00
2019-02-11T17:52:42.861Z,16.75
2019-02-11T18:02:45.041Z,17.30
2019-02-11T18:12:47.274Z,16.45
2019-02-11T18:22:49.224Z,18.15
2019-02-11T18:32:51.222Z,22.80
2019-02-11T18:42:53.248Z,17.12
2019-02-11T18:52:55.187Z,19.15
2019-02-11T19:02:57.599Z,17.73
2019-02-11T19:12:59.762Z,12.88
2019-02-11T19:23:01.888Z,15.43
2019-02-11T19:33:04.114Z,18.30
2019-02-11T19:43:06.080Z,34.78
2019-02-11T19:53:08.177Z,40.67
2019-02-11T20:03:10.711Z,29.77
2019-02-11T20:13:14.470Z,22.67
2019-02-11T20:23:16.743Z,22.77
2019-02-11T20:33:20.580Z,23.57
2019-02-11T20:43:22.518Z,22.37
2019-02-11T20:53:25.160Z,29.85
2019-02-11T21:03:31.906Z,18.50
2019-02-11T21:13:34.246Z,35.20
2019-02-11T21:23:37.720Z,32.03
2019-02-11T21:43:41.610Z,24.45
2019-02-11T21:53:43.538Z,22.98
2019-02-11T22:03:46.710Z,44.08
2019-02-11T22:13:52.531Z,15.70
2019-02-11T22:23:54.438Z,17.73
2019-02-11T22:33:56.374Z,19.12
2019-02-11T22:43:58.312Z,18.65
2019-02-11T22:54:00.239Z,23.45
2019-02-11T23:04:02.579Z,27.20
2019-02-11T23:14:04.755Z,17.95
2019-02-11T23:24:07.578Z,19.60
2019-02-11T23:34:10.442Z,19.73
2019-02-11T23:44:14.252Z,28.27
2019-02-11T23:54:17.999Z,24.80
